Time;durP1;ratioP1;P1;durP2;ratioP2;P2;SDS_P1;SDS_P2;PMS_P1;PMS_P2;Temp;Humidity;BMP_temperature;BMP_pressure;BME280_temperature;BME280_humidity;BME280_pressure;Samples;Min_cycle;Max_cycle;Signal;HPM_P1;HPM_P2
2021/03/17 00:00:24;;;;;;;12.40;5.93;;;;;;;0.92;100.00;96408.28;1024117;29;20024;-57
2021/03/17 00:00:55;;;;;;;9.95;5.50;;;;;;;0.93;100.00;96404.69;1024066;29;20027;-56
2021/03/17 00:01:26;;;;;;;15.07;6.25;;;;;;;0.94;100.00;96405.53;1016229;28;20047;-57
2021/03/17 00:01:56;;;;;;;12.40;6.22;;;;;;;0.94;100.00;96405.53;1028040;28;20030;-56
2021/03/17 00:02:27;;;;;;;12.00;5.93;;;;;;;0.90;100.00;96385.78;1024103;28;20393;-56
2021/03/17 00:02:58;;;;;;;13.07;6.68;;;;;;;0.91;100.00;96409.19;1032080;28;20376;-56
2021/03/17 00:03:29;;;;;;;13.07;6.78;;;;;;;0.92;100.00;96405.66;1024070;29;20066;-54
2021/03/17 00:03:59;;;;;;;13.10;6.43;;;;;;;0.93;100.00;96404.69;1024020;29;20489;-57
2021/03/17 00:04:30;;;;;;;13.95;7.13;;;;;;;0.96;100.00;96398.44;1028173;28;20015;-56
2021/03/17 00:05:01;;;;;;;13.23;6.35;;;;;;;0.97;100.00;96401.88;1024139;28;20054;-56
2021/03/17 00:05:33;;;;;;;12.43;6.72;;;;;;;0.96;100.00;96400.19;1016259;29;20019;-57
2021/03/17 00:06:04;;;;;;;12.90;6.28;;;;;;;0.96;100.00;96395.81;1028007;28;20061;-56
2021/03/17 00:06:35;;;;;;;13.18;6.35;;;;;;;0.97;100.00;96394.03;1024154;28;20073;-57
2021/03/17 00:07:06;;;;;;;12.32;6.50;;;;;;;0.94;100.00;96390.69;1016141;28;20024;-57
2021/03/17 00:07:36;;;;;;;10.50;6.15;;;;;;;0.91;100.00;96401.34;1024113;29;20023;-56
2021/03/17 00:08:07;;;;;;;9.77;5.80;;;;;;;0.92;100.00;96399.56;1028037;28;20018;-56
2021/03/17 00:08:38;;;;;;;13.27;6.40;;;;;;;0.89;100.00;96391.97;1036166;28;20523;-57
2021/03/17 00:09:09;;;;;;;10.05;6.15;;;;;;;0.88;100.00;96391.09;1036159;28;20044;-56
2021/03/17 00:09:39;;;;;;;11.73;6.18;;;;;;;0.96;100.00;96393.22;1028160;28;20073;-56
2021/03/17 00:10:11;;;;;;;13.43;6.82;;;;;;;0.98;100.00;96398.34;1028082;28;20681;-57
2021/03/17 00:10:44;;;;;;;15.13;6.93;;;;;;;0.92;100.00;96400.44;1028009;28;20022;-57
2021/03/17 00:11:15;;;;;;;15.98;6.90;;;;;;;0.91;100.00;96390.06;1020153;28;20032;-57
2021/03/17 00:11:46;;;;;;;11.27;5.97;;;;;;;0.89;100.00;96390.16;1028078;28;20503;-57
2021/03/17 00:12:17;;;;;;;13.38;6.60;;;;;;;0.92;100.00;96394.34;1028057;28;20023;-56
2021/03/17 00:12:49;;;;;;;9.73;6.57;;;;;;;0.92;100.00;96395.19;1036039;28;20092;-56
2021/03/17 00:13:24;;;;;;;14.38;6.88;;;;;;;0.90;100.00;96394.44;1032029;28;20385;-57
2021/03/17 00:13:54;;;;;;;11.63;6.35;;;;;;;0.92;100.00;96394.34;1027881;28;20019;-57
2021/03/17 00:14:25;;;;;;;13.50;6.95;;;;;;;0.92;100.00;96387.34;1028010;28;20329;-56
2021/03/17 00:14:56;;;;;;;11.38;6.38;;;;;;;0.90;100.00;96397.06;1027951;28;20023;-57
2021/03/17 00:15:28;;;;;;;15.95;7.50;;;;;;;0.89;100.00;96392.78;1027371;28;20114;-56
2021/03/17 00:15:59;;;;;;;12.35;6.60;;;;;;;0.87;100.00;96399.91;1020348;28;20127;-56
2021/03/17 00:16:30;;;;;;;12.90;7.05;;;;;;;0.89;100.00;96398.00;1023970;29;20026;-56
2021/03/17 00:17:01;;;;;;;11.05;6.53;;;;;;;0.86;100.00;96390.38;1020071;28;20036;-56
2021/03/17 00:17:32;;;;;;;12.95;6.60;;;;;;;0.88;100.00;96396.34;1027988;28;20049;-56
2021/03/17 00:18:03;;;;;;;11.35;6.35;;;;;;;0.87;100.00;96391.19;1032093;28;20014;-56
2021/03/17 00:18:34;;;;;;;19.20;7.20;;;;;;;0.87;100.00;96381.59;1023988;28;20030;-55
2021/03/17 00:19:06;;;;;;;15.18;7.28;;;;;;;0.87;100.00;96389.44;1020054;29;20019;-57
2021/03/17 00:19:36;;;;;;;12.23;7.25;;;;;;;0.87;100.00;96384.22;1023981;28;20035;-57
2021/03/17 00:20:09;;;;;;;13.30;7.07;;;;;;;0.85;100.00;96391.31;1028144;28;20118;-56
2021/03/17 00:20:40;;;;;;;12.35;6.70;;;;;;;0.87;100.00;96386.84;1024035;28;20046;-57
2021/03/17 00:21:11;;;;;;;12.50;7.20;;;;;;;0.89;100.00;96386.72;1032503;28;20139;-56
2021/03/17 00:21:42;;;;;;;16.55;7.05;;;;;;;0.84;100.00;96373.13;1028128;28;20022;-56
2021/03/17 00:22:13;;;;;;;14.13;7.15;;;;;;;0.84;100.00;96388.81;1028039;28;20054;-57
2021/03/17 00:22:44;;;;;;;11.57;6.82;;;;;;;0.84;100.00;96388.81;1023930;29;20105;-56
2021/03/17 00:23:17;;;;;;;14.10;6.45;;;;;;;0.84;100.00;96387.03;1028062;28;20034;-57
2021/03/17 00:23:48;;;;;;;12.95;6.63;;;;;;;0.84;100.00;96375.75;1031848;28;20022;-57
2021/03/17 00:24:18;;;;;;;12.40;6.80;;;;;;;0.85;100.00;96387.88;1016205;29;20115;-57
2021/03/17 00:24:49;;;;;;;14.10;7.05;;;;;;;0.85;100.00;96391.31;1027949;28;20031;-56
2021/03/17 00:25:21;;;;;;;12.57;6.40;;;;;;;0.83;100.00;96387.97;1032077;28;20038;-56
2021/03/17 00:25:52;;;;;;;12.77;6.95;;;;;;;0.85;100.00;96385.25;1024061;28;20027;-56
2021/03/17 00:26:23;;;;;;;15.52;6.82;;;;;;;0.85;100.00;96385.25;1032008;28;20552;-57
2021/03/17 00:26:54;;;;;;;13.05;6.57;;;;;;;0.84;100.00;96387.03;1027913;28;20319;-56
2021/03/17 00:27:24;;;;;;;13.70;7.30;;;;;;;0.87;100.00;96380.75;1032083;28;20053;-57
2021/03/17 00:27:56;;;;;;;13.35;7.68;;;;;;;0.85;100.00;96391.31;1032042;28;20054;-57
2021/03/17 00:28:27;;;;;;;13.85;7.25;;;;;;;0.81;100.00;96382.00;1028139;28;20023;-57
2021/03/17 00:28:58;;;;;;;17.42;7.50;;;;;;;0.84;100.00;96383.59;1031898;28;20018;-57
2021/03/17 00:29:29;;;;;;;11.85;6.95;;;;;;;0.85;100.00;96380.84;1036060;28;20054;-57
2021/03/17 00:30:00;;;;;;;11.25;6.75;;;;;;;0.84;100.00;96380.97;1020157;28;20043;-57
2021/03/17 00:30:31;;;;;;;15.20;7.00;;;;;;;0.86;100.00;96371.25;1040151;28;20475;-56
2021/03/17 00:31:02;;;;;;;15.35;6.93;;;;;;;0.87;100.00;96373.75;1028023;28;20015;-56
2021/03/17 00:31:33;;;;;;;16.48;7.20;;;;;;;0.85;100.00;96386.06;1023978;28;20026;-59
2021/03/17 00:32:05;;;;;;;15.18;7.43;;;;;;;0.85;100.00;96374.78;1032063;28;20022;-57
2021/03/17 00:32:36;;;;;;;13.18;7.10;;;;;;;0.83;100.00;96381.91;1032086;28;20022;-57
2021/03/17 00:33:08;;;;;;;13.90;6.82;;;;;;;0.77;100.00;96366.63;1027954;28;20018;-56
2021/03/17 00:33:39;;;;;;;16.80;7.15;;;;;;;0.82;100.00;96375.84;1025569;28;20113;-56
2021/03/17 00:34:10;;;;;;;13.80;7.13;;;;;;;0.82;100.00;96378.47;1024135;29;20388;-56
2021/03/17 00:34:41;;;;;;;14.98;8.07;;;;;;;0.79;100.00;96367.38;1027967;28;20052;-56
2021/03/17 00:35:12;;;;;;;15.57;7.88;;;;;;;0.81;100.00;96382.00;1032058;28;20105;-56
2021/03/17 00:35:44;;;;;;;18.48;7.68;;;;;;;0.85;100.00;96380.03;1028023;28;20058;-56
2021/03/17 00:36:15;;;;;;;13.95;7.35;;;;;;;0.85;100.00;96375.63;1023984;28;20031;-55
2021/03/17 00:36:46;;;;;;;17.25;7.93;;;;;;;0.83;100.00;96379.28;1027937;28;20034;-56
2021/03/17 00:37:16;;;;;;;15.82;7.85;;;;;;;0.84;100.00;96379.19;1024087;29;20110;-55
2021/03/17 00:37:47;;;;;;;11.98;7.03;;;;;;;0.84;100.00;96373.97;1028016;28;20026;-56
2021/03/17 00:38:18;;;;;;;13.80;7.55;;;;;;;0.86;100.00;96376.47;1028121;28;20018;-56
2021/03/17 00:38:48;;;;;;;18.00;7.18;;;;;;;0.87;100.00;96373.75;1032168;28;20030;-55
2021/03/17 00:39:19;;;;;;;14.32;8.38;;;;;;;0.87;100.00;96379.00;1024248;28;20031;-55
2021/03/17 00:39:50;;;;;;;13.68;7.47;;;;;;;0.82;100.00;96367.16;1038160;28;20037;-56
2021/03/17 00:40:21;;;;;;;14.68;6.97;;;;;;;0.87;100.00;96375.50;1030882;28;20415;-56
2021/03/17 00:40:52;;;;;;;16.67;8.55;;;;;;;0.86;100.00;96374.69;1031080;28;20023;-55
2021/03/17 00:41:23;;;;;;;12.32;7.07;;;;;;;0.79;100.00;96363.00;1039138;28;20117;-55
2021/03/17 00:41:54;;;;;;;11.75;7.40;;;;;;;0.87;100.00;96373.75;1038841;28;20129;-57
2021/03/17 00:42:24;;;;;;;18.10;7.80;;;;;;;0.89;100.00;96374.47;1027286;29;20444;-56
2021/03/17 00:42:55;;;;;;;13.52;7.50;;;;;;;0.89;100.00;96378.88;1031990;28;20042;-56
2021/03/17 00:43:26;;;;;;;18.40;7.60;;;;;;;0.88;100.00;96370.19;1027656;28;20075;-55
2021/03/17 00:43:57;;;;;;;11.68;7.35;;;;;;;0.87;100.00;96368.53;1027439;28;20019;-56
2021/03/17 00:44:28;;;;;;;14.55;8.25;;;;;;;0.87;100.00;96368.53;1027737;29;20051;-56
2021/03/17 00:44:59;;;;;;;12.40;7.63;;;;;;;0.88;100.00;96369.34;1023961;28;20027;-55
2021/03/17 00:45:29;;;;;;;15.48;8.18;;;;;;;0.87;100.00;96362.44;1030450;28;20014;-56
2021/03/17 00:46:00;;;;;;;15.82;7.93;;;;;;;0.88;100.00;96359.72;1031885;28;20492;-57
2021/03/17 00:46:31;;;;;;;15.25;7.07;;;;;;;0.84;100.00;96376.56;1024018;29;20070;-56
2021/03/17 00:47:02;;;;;;;14.85;7.78;;;;;;;0.87;100.00;96367.69;1032040;28;20030;-56
2021/03/17 00:47:33;;;;;;;16.17;7.00;;;;;;;0.86;100.00;96361.63;1028032;28;20449;-56
2021/03/17 00:48:04;;;;;;;15.80;7.93;;;;;;;0.80;100.00;96362.06;1027876;28;20030;-57
2021/03/17 00:48:35;;;;;;;15.00;8.18;;;;;;;0.85;100.00;96372.19;1023975;28;20042;-56
2021/03/17 00:49:06;;;;;;;15.00;8.00;;;;;;;0.87;100.00;96368.53;1024035;28;20015;-56
2021/03/17 00:49:36;;;;;;;17.13;8.25;;;;;;;0.86;100.00;96366.84;1032007;28;20019;-56
2021/03/17 00:50:09;;;;;;;12.05;7.25;;;;;;;0.83;100.00;96364.44;1027932;28;20030;-56
2021/03/17 00:50:39;;;;;;;12.40;7.40;;;;;;;0.83;100.00;96369.66;1024068;29;20464;-56
2021/03/17 00:51:10;;;;;;;15.80;7.97;;;;;;;0.82;100.00;96364.53;1024310;28;20019;-56
2021/03/17 00:51:41;;;;;;;14.38;7.72;;;;;;;0.82;100.00;96368.00;1020027;29;20020;-56
2021/03/17 00:52:12;;;;;;;14.80;7.78;;;;;;;0.84;100.00;96370.53;1027942;28;20033;-57
2021/03/17 00:52:43;;;;;;;15.32;8.55;;;;;;;0.89;100.00;96368.44;1031975;28;20021;-57
2021/03/17 00:53:14;;;;;;;14.35;7.32;;;;;;;0.87;100.00;96365.91;1031920;28;20018;-57
2021/03/17 00:53:45;;;;;;;12.57;7.60;;;;;;;0.86;100.00;96369.47;1027920;28;20436;-56
2021/03/17 00:54:16;;;;;;;15.20;7.30;;;;;;;0.86;100.00;96366.03;1023888;29;20109;-56
2021/03/17 00:54:47;;;;;;;13.48;7.57;;;;;;;0.85;100.00;96370.38;1028055;28;20019;-56
2021/03/17 00:55:17;;;;;;;13.77;8.13;;;;;;;0.86;100.00;96363.41;1031909;28;20076;-57
2021/03/17 00:55:48;;;;;;;15.02;8.18;;;;;;;0.78;100.00;96350.84;1023925;29;20470;-57
2021/03/17 00:56:19;;;;;;;17.48;8.50;;;;;;;0.87;100.00;96368.53;1023789;29;20082;-57
2021/03/17 00:56:50;;;;;;;14.90;7.55;;;;;;;0.90;100.00;96364.84;1031807;28;20022;-57
2021/03/17 00:57:21;;;;;;;15.02;8.07;;;;;;;0.88;100.00;96362.34;1027903;28;20018;-56
2021/03/17 00:57:52;;;;;;;16.33;8.70;;;;;;;0.89;100.00;96365.81;1023885;28;20066;-56
2021/03/17 00:58:23;;;;;;;12.38;8.02;;;;;;;0.90;100.00;96362.25;1023809;28;20476;-56
2021/03/17 00:58:54;;;;;;;15.13;8.07;;;;;;;0.88;100.00;96358.91;1023854;28;20045;-57
2021/03/17 00:59:25;;;;;;;14.15;8.18;;;;;;;0.87;100.00;96363.31;1023954;28;20023;-56
2021/03/17 00:59:55;;;;;;;15.15;8.38;;;;;;;0.87;100.00;96363.31;1020023;29;20041;-57
2021/03/17 01:00:26;;;;;;;19.52;8.40;;;;;;;0.87;100.00;96359.81;1027864;28;20023;-57
2021/03/17 01:00:57;;;;;;;14.75;7.60;;;;;;;0.86;100.00;96358.19;1023777;28;20074;-56
2021/03/17 01:01:28;;;;;;;13.55;7.53;;;;;;;0.89;100.00;96363.19;1027841;28;20201;-56
2021/03/17 01:01:59;;;;;;;18.70;8.60;;;;;;;0.85;100.00;96356.50;1024008;29;20073;-56
2021/03/17 01:02:30;;;;;;;19.40;7.68;;;;;;;0.88;100.00;96362.34;1027909;28;20048;-55
2021/03/17 01:03:01;;;;;;;13.75;8.18;;;;;;;0.86;100.00;96358.19;1016009;29;20542;-57
2021/03/17 01:03:32;;;;;;;16.98;8.90;;;;;;;0.85;100.00;96354.72;1024078;29;20029;-56
2021/03/17 01:04:02;;;;;;;13.73;8.60;;;;;;;0.85;100.00;96365.16;1031846;28;20424;-57
2021/03/17 01:04:34;;;;;;;15.63;8.27;;;;;;;0.87;100.00;96355.47;1027903;28;20147;-57
2021/03/17 01:05:05;;;;;;;17.67;8.50;;;;;;;0.88;100.00;96353.66;1027751;28;20019;-57
2021/03/17 01:05:36;;;;;;;15.65;8.25;;;;;;;0.84;100.00;96350.44;1027854;28;20015;-57
2021/03/17 01:06:07;;;;;;;14.55;8.45;;;;;;;0.79;100.00;96349.09;1031874;28;20101;-57
2021/03/17 01:06:38;;;;;;;15.23;7.93;;;;;;;0.84;100.00;96344.38;1027950;28;20135;-56
2021/03/17 01:07:12;;;;;;;16.88;8.82;;;;;;;0.86;100.00;96351.16;1031725;28;20018;-57
2021/03/17 01:07:43;;;;;;;15.93;8.25;;;;;;;0.85;100.00;96346.03;1031876;28;20014;-56
2021/03/17 01:08:14;;;;;;;18.30;9.25;;;;;;;0.84;100.00;96347.81;1027883;28;20374;-56
2021/03/17 01:08:45;;;;;;;16.10;9.48;;;;;;;0.82;100.00;96352.31;1040033;28;20014;-57
2021/03/17 01:09:16;;;;;;;18.30;8.85;;;;;;;0.85;100.00;96348.66;1023850;28;20015;-56
2021/03/17 01:09:47;;;;;;;15.40;8.60;;;;;;;0.83;100.00;96346.13;1028016;28;20138;-57
2021/03/17 01:10:28;;;;;;;15.93;8.90;;;;;;;0.80;100.00;96341.16;1027855;28;20452;-56
2021/03/17 01:11:00;;;;;;;15.45;8.73;;;;;;;0.80;100.00;96354.22;1019790;29;20028;-57
2021/03/17 01:11:31;;;;;;;18.02;9.10;;;;;;;0.80;100.00;96343.75;1027951;28;20038;-55
2021/03/17 01:12:02;;;;;;;20.15;9.77;;;;;;;0.83;100.00;96346.13;1033684;28;20038;-57
2021/03/17 01:12:32;;;;;;;19.08;9.55;;;;;;;0.79;100.00;96342.06;1024119;28;20057;-56
2021/03/17 01:13:04;;;;;;;18.08;9.10;;;;;;;0.82;100.00;96339.25;1023800;29;20019;-57
2021/03/17 01:13:35;;;;;;;17.45;9.45;;;;;;;0.80;100.00;96345.50;1023671;29;20098;-57
2021/03/17 01:14:06;;;;;;;17.30;9.55;;;;;;;0.79;100.00;96339.47;1027767;28;20567;-57
2021/03/17 01:14:37;;;;;;;17.80;9.77;;;;;;;0.82;100.00;96343.63;1031839;28;20027;-57
2021/03/17 01:15:11;;;;;;;18.27;9.25;;;;;;;0.84;100.00;96347.00;1031784;28;20010;-56
2021/03/17 01:15:44;;;;;;;17.65;9.35;;;;;;;0.81;100.00;96337.56;1027878;28;20539;-56
2021/03/17 01:16:15;;;;;;;17.83;9.48;;;;;;;0.78;100.00;96340.38;1028870;28;20047;-57
2021/03/17 01:16:46;;;;;;;18.63;10.25;;;;;;;0.79;100.00;96344.69;1023005;29;20389;-57
2021/03/17 01:17:16;;;;;;;17.27;9.32;;;;;;;0.79;100.00;96342.06;1027638;28;20038;-56
2021/03/17 01:17:47;;;;;;;18.40;9.90;;;;;;;0.80;100.00;96341.16;1027831;28;20036;-56
2021/03/17 01:18:18;;;;;;;15.60;8.57;;;;;;;0.79;100.00;96344.69;1027818;28;20046;-56
2021/03/17 01:18:49;;;;;;;18.00;9.15;;;;;;;0.74;100.00;96336.31;1027890;28;20023;-55
2021/03/17 01:19:20;;;;;;;18.83;10.05;;;;;;;0.79;100.00;96338.63;1031803;28;20041;-56
2021/03/17 01:19:51;;;;;;;17.02;9.25;;;;;;;0.77;100.00;96333.50;1027801;28;20487;-56
2021/03/17 01:20:24;;;;;;;18.75;10.55;;;;;;;0.76;100.00;96334.44;1031854;28;20153;-56
2021/03/17 01:20:55;;;;;;;19.33;10.00;;;;;;;0.80;100.00;96340.28;1027707;28;20504;-56
2021/03/17 01:21:26;;;;;;;17.10;9.60;;;;;;;0.77;100.00;96335.25;1031617;28;20022;-56
2021/03/17 01:21:57;;;;;;;18.02;9.93;;;;;;;0.79;100.00;96334.22;1027824;28;20019;-56
2021/03/17 01:22:28;;;;;;;15.95;9.90;;;;;;;0.78;100.00;96343.00;1031709;28;20031;-56
2021/03/17 01:22:58;;;;;;;18.02;10.52;;;;;;;0.79;100.00;96336.84;1023815;28;20090;-56
2021/03/17 01:23:29;;;;;;;18.35;9.43;;;;;;;0.77;100.00;96332.66;1031514;28;20105;-52
2021/03/17 01:24:00;;;;;;;17.92;9.73;;;;;;;0.75;100.00;96330.16;1019964;28;20023;-56
2021/03/17 01:24:32;;;;;;;17.10;9.75;;;;;;;0.73;100.00;96334.63;1027757;28;20145;-56
2021/03/17 01:25:08;;;;;;;21.27;11.60;;;;;;;0.77;100.00;96330.91;1027762;28;20027;-56
2021/03/17 01:25:41;;;;;;;17.58;9.52;;;;;;;0.76;100.00;96329.22;1027644;28;20029;-56
2021/03/17 01:26:12;;;;;;;16.00;9.68;;;;;;;0.77;100.00;96333.50;1021231;29;20044;-55
2021/03/17 01:26:43;;;;;;;16.88;9.57;;;;;;;0.79;100.00;96336.03;1023594;28;20011;-54
2021/03/17 01:27:13;;;;;;;16.40;9.88;;;;;;;0.81;100.00;96329.72;1031820;28;20499;-57
2021/03/17 01:27:44;;;;;;;16.63;9.20;;;;;;;0.80;100.00;96330.69;1027649;28;20107;-55
2021/03/17 01:28:15;;;;;;;15.38;10.05;;;;;;;0.82;100.00;96331.41;1019860;28;20024;-56
2021/03/17 01:28:45;;;;;;;20.80;10.38;;;;;;;0.78;100.00;96331.72;1031803;28;20015;-56
2021/03/17 01:29:16;;;;;;;17.10;10.13;;;;;;;0.77;100.00;96323.06;1023817;28;20023;-55
2021/03/17 01:29:47;;;;;;;18.17;9.80;;;;;;;0.77;100.00;96325.66;1031687;28;20010;-56
2021/03/17 01:30:19;;;;;;;16.73;9.80;;;;;;;0.75;100.00;96331.00;1031896;28;20045;-56
2021/03/17 01:30:55;;;;;;;15.52;9.77;;;;;;;0.72;100.00;96323.34;1023730;28;20106;-56
2021/03/17 01:31:26;;;;;;;20.02;10.52;;;;;;;0.71;100.00;96326.91;1027845;28;20022;-57
2021/03/17 01:31:56;;;;;;;15.73;9.77;;;;;;;0.73;100.00;96321.56;1023673;28;20039;-57
2021/03/17 01:32:27;;;;;;;17.80;9.52;;;;;;;0.72;100.00;96327.75;1031788;28;20030;-57
2021/03/17 01:32:58;;;;;;;16.80;9.65;;;;;;;0.69;100.00;96320.94;1035857;28;20025;-57
2021/03/17 01:33:30;;;;;;;15.05;9.98;;;;;;;0.75;100.00;96322.31;1031667;28;20021;-55
2021/03/17 01:34:01;;;;;;;16.10;9.27;;;;;;;0.75;100.00;96322.31;1031513;28;20033;-56
2021/03/17 01:34:32;;;;;;;16.00;9.65;;;;;;;0.73;100.00;96321.56;1019866;28;20030;-56
2021/03/17 01:35:12;;;;;;;18.33;9.60;;;;;;;0.77;100.00;96327.41;1027763;28;20481;-55
2021/03/17 01:35:46;;;;;;;18.10;9.75;;;;;;;0.77;100.00;96322.19;1027788;28;20200;-56
2021/03/17 01:36:16;;;;;;;20.90;10.23;;;;;;;0.74;100.00;96326.69;1019755;29;20031;-56
2021/03/17 01:36:47;;;;;;;18.75;10.38;;;;;;;0.77;100.00;96312.59;1031685;28;20022;-57
2021/03/17 01:37:18;;;;;;;16.00;10.25;;;;;;;0.74;100.00;96320.66;1031704;28;20061;-57
2021/03/17 01:37:49;;;;;;;20.25;10.50;;;;;;;0.75;100.00;96322.31;1027781;28;20077;-56
2021/03/17 01:38:19;;;;;;;17.70;10.30;;;;;;;0.78;100.00;96319.47;1027717;28;20408;-56
2021/03/17 01:38:50;;;;;;;17.67;9.93;;;;;;;0.79;100.00;96317.72;1031814;28;20552;-56
2021/03/17 01:39:21;;;;;;;15.68;9.88;;;;;;;0.75;100.00;96324.94;1027710;28;20026;-55
2021/03/17 01:39:52;;;;;;;19.58;10.65;;;;;;;0.63;100.00;96305.72;1027738;28;20165;-56
2021/03/17 01:40:24;;;;;;;16.38;9.85;;;;;;;0.63;100.00;96303.09;1027675;28;20435;-56
2021/03/17 01:40:55;;;;;;;21.70;10.18;;;;;;;0.72;100.00;96322.53;1031698;28;20033;-58
2021/03/17 01:41:25;;;;;;;18.67;10.45;;;;;;;0.70;100.00;96320.03;1031671;28;20105;-56
2021/03/17 01:41:56;;;;;;;14.70;9.50;;;;;;;0.67;100.00;96322.84;1027855;28;20136;-56
2021/03/17 01:42:27;;;;;;;18.08;10.27;;;;;;;0.69;100.00;96317.50;1027661;28;20046;-56
2021/03/17 01:42:58;;;;;;;17.42;10.35;;;;;;;0.67;100.00;96312.38;1027679;28;20015;-56
2021/03/17 01:43:28;;;;;;;19.27;10.45;;;;;;;0.66;100.00;96312.50;1031681;28;20018;-57
2021/03/17 01:43:59;;;;;;;18.80;9.27;;;;;;;0.72;100.00;96319.91;1035749;28;20014;-57
2021/03/17 01:44:30;;;;;;;17.80;10.13;;;;;;;0.71;100.00;96321.69;1027615;28;20043;-56
2021/03/17 01:45:00;;;;;;;14.90;10.18;;;;;;;0.70;100.00;96314.78;1027650;28;20038;-56
2021/03/17 01:45:31;;;;;;;17.10;10.07;;;;;;;0.71;100.00;96321.69;1035804;28;20028;-57
2021/03/17 01:46:02;;;;;;;19.65;10.52;;;;;;;0.61;100.00;96307.59;1031816;28;20022;-55
2021/03/17 01:46:33;;;;;;;16.40;10.63;;;;;;;0.71;100.00;96315.63;1031678;28;20049;-56
2021/03/17 01:47:03;;;;;;;16.23;10.23;;;;;;;0.71;100.00;96313.00;1027756;28;20018;-56
2021/03/17 01:47:34;;;;;;;16.08;10.35;;;;;;;0.74;100.00;96323.25;1031787;28;20014;-56
2021/03/17 01:48:06;;;;;;;16.40;9.90;;;;;;;0.71;100.00;96316.44;1031755;28;20022;-56
2021/03/17 01:48:36;;;;;;;16.40;10.13;;;;;;;0.72;100.00;96317.31;1023586;28;20425;-56
2021/03/17 01:49:07;;;;;;;16.55;10.43;;;;;;;0.69;100.00;96317.50;1031727;28;20018;-55
2021/03/17 01:49:37;;;;;;;16.63;10.15;;;;;;;0.67;100.00;96320.22;1023703;29;20023;-56
2021/03/17 01:50:11;;;;;;;16.10;10.18;;;;;;;0.69;100.00;96312.28;1031751;28;20466;-56
2021/03/17 01:50:44;;;;;;;17.45;10.73;;;;;;;0.71;100.00;96310.41;1031592;28;20014;-56
2021/03/17 01:51:15;;;;;;;19.30;10.35;;;;;;;0.72;100.00;96312.06;1031768;28;20499;-57
2021/03/17 01:51:46;;;;;;;16.20;9.98;;;;;;;0.71;100.00;96319.06;1031767;28;20030;-56
2021/03/17 01:52:17;;;;;;;15.93;10.18;;;;;;;0.70;100.00;96325.25;1027633;28;20102;-56
2021/03/17 01:52:47;;;;;;;17.27;10.25;;;;;;;0.73;100.00;96313.72;1027634;28;20042;-57
2021/03/17 01:53:24;;;;;;;18.42;10.32;;;;;;;0.72;100.00;96312.06;1023682;28;20046;-56
2021/03/17 01:53:55;;;;;;;20.23;10.25;;;;;;;0.73;100.00;96309.34;1023577;28;20505;-57
2021/03/17 01:54:26;;;;;;;16.05;10.15;;;;;;;0.73;100.00;96313.72;1027647;28;20393;-56
2021/03/17 01:54:56;;;;;;;16.95;9.73;;;;;;;0.71;100.00;96318.22;1027535;28;20030;-56
2021/03/17 01:55:27;;;;;;;18.55;12.25;;;;;;;0.72;100.00;96310.28;1027685;28;20022;-57
2021/03/17 01:55:58;;;;;;;15.43;10.15;;;;;;;0.75;100.00;96314.50;1027762;28;20492;-56
2021/03/17 01:56:29;;;;;;;21.35;10.40;;;;;;;0.67;100.00;96319.41;1035752;28;20045;-53
2021/03/17 01:57:00;;;;;;;14.18;9.45;;;;;;;0.64;100.00;96303.91;1031553;28;20022;-57
2021/03/17 01:57:31;;;;;;;15.82;9.85;;;;;;;0.67;100.00;96308.94;1031560;28;20010;-56
2021/03/17 01:58:02;;;;;;;18.58;10.63;;;;;;;0.62;100.00;96314.47;1031826;28;20172;-57
2021/03/17 01:58:35;;;;;;;20.55;10.88;;;;;;;0.63;100.00;96308.31;1031578;28;20104;-54
2021/03/17 01:59:06;;;;;;;16.25;10.00;;;;;;;0.63;100.00;96310.94;1031579;28;20397;-56
2021/03/17 01:59:37;;;;;;;15.52;10.57;;;;;;;0.60;100.00;96303.31;1031667;28;20022;-56
2021/03/17 02:00:10;;;;;;;18.98;10.93;;;;;;;0.64;100.00;96304.75;1031766;28;20029;-57
2021/03/17 02:00:41;;;;;;;17.70;10.82;;;;;;;0.65;100.00;96309.03;1027652;28;20381;-56
2021/03/17 02:01:12;;;;;;;18.90;11.32;;;;;;;0.66;100.00;96309.88;1027536;28;20061;-55
2021/03/17 02:01:43;;;;;;;18.25;11.23;;;;;;;0.66;100.00;96302.88;1020377;28;20023;-56
2021/03/17 02:02:13;;;;;;;18.52;11.07;;;;;;;0.68;100.00;96310.59;1027663;28;20389;-57
2021/03/17 02:02:49;;;;;;;15.00;10.07;;;;;;;0.65;100.00;96308.22;1015851;28;20529;-57
2021/03/17 02:03:19;;;;;;;17.52;10.27;;;;;;;0.68;100.00;96313.22;1031617;28;20114;-56
2021/03/17 02:03:50;;;;;;;17.83;11.02;;;;;;;0.65;100.00;96313.44;1035572;28;20045;-56
2021/03/17 02:04:21;;;;;;;17.92;10.98;;;;;;;0.63;100.00;96307.47;1019742;28;20027;-56
2021/03/17 02:04:52;;;;;;;17.80;10.77;;;;;;;0.63;100.00;96310.06;1023625;29;20023;-56
2021/03/17 02:05:31;;;;;;;19.67;10.93;;;;;;;0.68;100.00;96310.59;1023507;28;20050;-57
2021/03/17 02:06:01;;;;;;;18.13;10.43;;;;;;;0.65;100.00;96309.03;1027802;28;20428;-56
2021/03/17 02:06:32;;;;;;;17.95;10.90;;;;;;;0.66;100.00;96307.25;1031638;28;20029;-55
2021/03/17 02:07:03;;;;;;;18.50;11.13;;;;;;;0.59;100.00;96293.78;1027601;28;20033;-56
2021/03/17 02:07:34;;;;;;;15.52;9.77;;;;;;;0.69;100.00;96310.50;1027679;28;20041;-54
2021/03/17 02:08:06;;;;;;;18.00;10.73;;;;;;;0.70;100.00;96306.94;1027678;28;20045;-56
2021/03/17 02:08:39;;;;;;;14.98;10.10;;;;;;;0.69;100.00;96301.81;1027560;28;20038;-57
2021/03/17 02:09:09;;;;;;;18.10;11.20;;;;;;;0.68;100.00;96294.91;1031744;28;20022;-56
2021/03/17 02:09:41;;;;;;;18.00;10.93;;;;;;;0.69;100.00;96301.81;1031047;28;20456;-56
2021/03/17 02:10:14;;;;;;;20.63;11.55;;;;;;;0.70;100.00;96308.75;1023812;28;20019;-56
2021/03/17 02:10:45;;;;;;;18.20;11.45;;;;;;;0.73;100.00;96303.28;1028819;28;20408;-56
2021/03/17 02:11:15;;;;;;;17.35;10.70;;;;;;;0.71;100.00;96300.75;1031789;28;20062;-56
2021/03/17 02:12:01;;;;;;;21.05;12.05;;;;;;;0.66;100.00;96291.59;1023634;28;20136;-56
2021/03/17 02:12:38;;;;;;;17.30;10.23;;;;;;;0.63;100.00;96300.47;1035639;28;20025;-56
2021/03/17 02:13:15;;;;;;;19.58;11.07;;;;;;;0.59;100.00;96303.41;1031612;28;20423;-56
2021/03/17 02:13:54;;;;;;;18.13;10.77;;;;;;;0.57;100.00;96300.88;1027391;28;20019;-56
2021/03/17 02:14:34;;;;;;;21.00;12.13;;;;;;;0.58;100.00;96302.56;1031580;28;20396;-56
2021/03/17 02:15:08;;;;;;;;;;;;;;;0.60;100.00;96302.47;1028092;28;20042;-56
2021/03/17 02:15:55;;;;;;;19.83;10.27;;;;;;;0.58;100.00;96299.13;1027482;28;19933;-56
2021/03/17 02:16:37;;;;;;;20.67;11.23;;;;;;;0.60;100.00;96299.88;1031663;28;20029;-56
2021/03/17 02:17:19;;;;;;;21.35;10.90;;;;;;;0.62;100.00;96295.34;1031485;28;20014;-56
2021/03/17 02:17:49;;;;;;;18.10;11.35;;;;;;;0.58;100.00;96294.75;1035654;28;20018;-57
2021/03/17 02:18:30;;;;;;;19.42;11.05;;;;;;;0.55;100.00;96301.00;1023773;28;20019;-56
2021/03/17 02:19:27;;;;;;;19.52;11.75;;;;;;;0.63;100.00;96297.00;1023722;28;20015;-56
2021/03/17 02:20:17;;;;;;;19.42;11.35;;;;;;;0.60;100.00;96299.88;1033402;28;20030;-56
2021/03/17 02:21:07;;;;;;;19.95;11.63;;;;;;;0.62;100.00;96297.97;1033721;28;20109;-57
2021/03/17 02:21:49;;;;;;;19.35;11.20;;;;;;;0.61;100.00;96293.69;1026420;28;20532;-56
2021/03/17 02:22:32;;;;;;;20.60;11.43;;;;;;;0.55;100.00;96292.31;1031875;28;20018;-56
2021/03/17 02:23:03;;;;;;;20.75;11.93;;;;;;;0.56;100.00;96294.00;1035845;28;20089;-57
2021/03/17 02:23:47;;;;;;;25.10;12.65;;;;;;;0.55;100.00;96300.16;1034903;28;20040;-55
2021/03/17 02:24:28;;;;;;;21.00;12.90;;;;;;;0.58;100.00;96292.13;1027580;28;20015;-56
2021/03/17 02:25:17;;;;;;;18.98;11.88;;;;;;;0.59;100.00;96296.38;1027594;28;20428;-57
2021/03/17 02:25:58;;;;;;;22.55;11.82;;;;;;;0.55;100.00;96292.31;1035696;28;20010;-56
2021/03/17 02:26:39;;;;;;;20.33;11.45;;;;;;;0.51;100.00;96293.50;1035689;28;20025;-57
2021/03/17 02:27:23;;;;;;;20.55;12.30;;;;;;;0.59;100.00;96295.56;1031455;28;20015;-56
2021/03/17 02:28:13;;;;;;;21.40;11.55;;;;;;;0.59;100.00;96296.38;1027691;28;20057;-56
2021/03/17 02:29:04;;;;;;;21.90;11.82;;;;;;;0.54;100.00;96294.13;1032437;28;20014;-56
2021/03/17 02:29:47;;;;;;;19.77;11.32;;;;;;;0.55;100.00;96292.31;1035639;28;20010;-56